Time;durP1;ratioP1;P1;durP2;ratioP2;P2;SDS_P1;SDS_P2;PMS_P1;PMS_P2;Temp;Humidity;BMP_temperature;BMP_pressure;BME280_temperature;BME280_humidity;BME280_pressure;Samples;Min_cycle;Max_cycle;Signal;HPM_P1;HPM_P2
2022/08/07 00:01:30;;;;;;;11.27;10.40;;;;;;;21.55;60.31;92623.50;5046979;28;20212;-71
2022/08/07 00:03:56;;;;;;;10.68;9.88;;;;;;;21.71;60.40;92648.16;5048767;28;20233;-71
2022/08/07 00:06:21;;;;;;;11.00;10.20;;;;;;;21.76;60.91;92651.34;5048546;28;20227;-70
2022/08/07 00:08:47;;;;;;;12.13;10.55;;;;;;;21.68;60.89;92632.91;5047428;28;20236;-72
2022/08/07 00:11:13;;;;;;;11.30;10.27;;;;;;;21.82;60.87;92649.22;5046438;28;20227;-71
2022/08/07 00:13:39;;;;;;;10.30;9.50;;;;;;;21.75;61.50;92654.34;5047331;28;20240;-71
2022/08/07 00:16:04;;;;;;;11.27;10.48;;;;;;;21.62;62.31;92647.59;5048184;28;20196;-72
2022/08/07 00:18:31;;;;;;;10.25;9.52;;;;;;;21.55;62.95;92642.09;5047156;28;20201;-71
2022/08/07 00:21:02;;;;;;;11.57;10.45;;;;;;;21.42;64.24;92646.72;5047603;28;20229;-70
2022/08/07 00:23:29;;;;;;;9.85;9.25;;;;;;;21.42;63.65;92651.25;5048061;28;20194;-72
2022/08/07 00:25:55;;;;;;;11.07;10.07;;;;;;;21.43;64.42;92663.44;5048152;28;20667;-71
2022/08/07 00:28:21;;;;;;;11.23;10.43;;;;;;;21.24;65.24;92642.09;5049122;28;20226;-72
2022/08/07 00:30:46;;;;;;;10.35;9.55;;;;;;;21.30;65.01;92659.31;5052652;28;20189;-72
2022/08/07 00:33:12;;;;;;;10.10;9.30;;;;;;;21.18;64.99;92646.91;5051887;28;20204;-71
2022/08/07 00:35:37;;;;;;;11.65;10.77;;;;;;;21.17;65.35;92655.97;5052049;28;20235;-72
2022/08/07 00:38:04;;;;;;;11.10;10.10;;;;;;;21.28;65.71;92661.53;5051582;28;20184;-72
2022/08/07 00:40:30;;;;;;;10.48;9.77;;;;;;;21.22;65.43;92662.91;5051497;28;20241;-72
2022/08/07 00:42:55;;;;;;;12.18;11.27;;;;;;;21.13;65.77;92649.03;5052211;28;20206;-71
2022/08/07 00:45:21;;;;;;;11.45;10.57;;;;;;;21.24;65.54;92661.47;5051080;28;20216;-71
2022/08/07 00:47:48;;;;;;;11.45;10.60;;;;;;;21.13;65.34;92638.41;5051375;28;20188;-71
2022/08/07 00:50:14;;;;;;;11.88;10.77;;;;;;;21.28;65.34;92664.19;5050361;28;20229;-70
2022/08/07 00:52:39;;;;;;;12.18;11.20;;;;;;;21.25;65.81;92646.28;5051592;28;20196;-73
2022/08/07 00:55:05;;;;;;;11.65;10.70;;;;;;;21.39;65.85;92667.88;5051656;28;20248;-71
2022/08/07 00:57:31;;;;;;;9.93;9.15;;;;;;;21.23;66.79;92659.16;5050874;28;20184;-72
2022/08/07 00:59:57;;;;;;;10.32;9.57;;;;;;;21.21;67.12;92666.69;5050243;28;20244;-71
2022/08/07 01:02:24;;;;;;;10.90;10.10;;;;;;;21.14;66.61;92656.66;5049150;28;20284;-72
2022/08/07 01:04:50;;;;;;;10.60;9.75;;;;;;;21.23;66.07;92662.56;5077983;28;20229;-71
2022/08/07 01:07:17;;;;;;;11.18;10.38;;;;;;;21.25;65.38;92654.25;5050588;28;20220;-72
2022/08/07 01:09:43;;;;;;;10.88;9.93;;;;;;;21.23;65.12;92648.53;5050538;28;20254;-72
2022/08/07 01:12:08;;;;;;;11.52;10.63;;;;;;;21.33;65.68;92656.75;5050882;28;20179;-72
2022/08/07 01:14:34;;;;;;;11.27;10.48;;;;;;;21.25;66.13;92651.59;5050101;28;20250;-71
2022/08/07 01:16:59;;;;;;;10.98;10.27;;;;;;;21.16;66.20;92649.13;5049980;28;20226;-72
2022/08/07 01:19:28;;;;;;;10.35;9.65;;;;;;;21.29;65.17;92650.56;5051247;28;20262;-72
2022/08/07 01:21:54;;;;;;;11.05;10.32;;;;;;;21.23;65.56;92661.81;5049489;28;20199;-72
2022/08/07 01:24:19;;;;;;;11.10;10.25;;;;;;;21.21;65.74;92650.75;5051237;28;21257;-71
2022/08/07 01:26:46;;;;;;;10.68;9.88;;;;;;;20.95;66.58;92631.88;5051506;28;20181;-72
2022/08/07 01:29:11;;;;;;;11.75;10.55;;;;;;;21.08;66.31;92662.56;5051041;28;20232;-72
2022/08/07 01:31:38;;;;;;;10.52;9.63;;;;;;;20.70;67.42;92612.66;5050243;28;20234;-70
2022/08/07 01:34:04;;;;;;;10.77;9.98;;;;;;;20.97;67.96;92661.50;5051388;28;20225;-71
2022/08/07 01:36:30;;;;;;;11.02;10.23;;;;;;;20.90;68.23;92656.78;5049396;28;20188;-71
2022/08/07 01:38:56;;;;;;;10.80;10.10;;;;;;;20.91;67.69;92662.84;5050715;28;20228;-72
2022/08/07 01:41:22;;;;;;;11.18;10.38;;;;;;;20.85;68.40;92669.50;5050478;28;20225;-72
2022/08/07 01:43:49;;;;;;;11.20;10.20;;;;;;;20.84;68.40;92668.75;5050969;28;20259;-72
2022/08/07 01:46:16;;;;;;;12.23;11.32;;;;;;;20.85;68.51;92674.81;5050879;28;20188;-73
2022/08/07 01:48:43;;;;;;;10.38;9.57;;;;;;;20.60;68.11;92637.81;5050888;28;20228;-75
2022/08/07 01:51:13;;;;;;;11.85;10.95;;;;;;;20.84;67.54;92675.94;5050054;28;20209;-74
2022/08/07 01:53:43;;;;;;;10.82;9.88;;;;;;;20.84;66.55;92662.69;5050712;28;20242;-71
2022/08/07 01:56:13;;;;;;;9.52;8.82;;;;;;;21.03;67.22;92670.78;5049194;28;20264;-73
2022/08/07 01:58:52;;;;;;;12.02;10.88;;;;;;;21.28;66.17;92688.09;5049127;28;20822;-73
2022/08/07 02:01:30;;;;;;;11.73;10.70;;;;;;;21.12;65.80;92696.06;5049951;28;20207;-75
2022/08/07 02:04:06;;;;;;;11.57;10.77;;;;;;;21.17;67.80;92740.94;5050377;28;20290;-76
2022/08/07 02:06:34;;;;;;;10.77;9.90;;;;;;;21.23;65.95;92773.34;5079551;28;20208;-73
2022/08/07 02:09:03;;;;;;;13.75;10.60;;;;;;;21.09;67.51;92787.00;5049845;28;20227;-73
2022/08/07 02:11:32;;;;;;;11.45;10.23;;;;;;;21.15;66.93;92784.91;5050078;28;20179;-73
2022/08/07 02:13:59;;;;;;;12.57;11.57;;;;;;;20.93;66.92;92788.81;5049815;28;20227;-76
2022/08/07 02:16:25;;;;;;;12.73;11.57;;;;;;;21.08;67.30;92796.09;5049853;28;20195;-73
2022/08/07 02:18:53;;;;;;;12.18;10.93;;;;;;;21.03;68.38;92792.91;5050032;28;20242;-72
2022/08/07 02:21:19;;;;;;;12.57;11.57;;;;;;;20.98;70.57;92807.19;5049639;28;20213;-72
2022/08/07 02:23:45;;;;;;;11.75;10.73;;;;;;;21.00;72.09;92796.22;5049625;28;20232;-73
2022/08/07 02:26:12;;;;;;;11.73;10.93;;;;;;;21.05;71.90;92791.47;5050020;28;20186;-73
2022/08/07 02:28:39;;;;;;;11.98;10.90;;;;;;;20.93;73.88;92794.13;5050099;28;20237;-73
2022/08/07 02:31:06;;;;;;;12.85;11.60;;;;;;;20.59;73.49;92736.31;5049917;28;20233;-74
2022/08/07 02:33:32;;;;;;;12.30;11.27;;;;;;;20.79;75.67;92777.03;5050863;28;20190;-74
2022/08/07 02:35:59;;;;;;;12.75;11.57;;;;;;;20.63;75.22;92753.88;5049843;28;20190;-74
2022/08/07 02:38:30;;;;;;;12.02;11.13;;;;;;;20.62;77.34;92746.25;5050842;28;20265;-73
2022/08/07 02:40:57;;;;;;;12.40;11.38;;;;;;;20.70;78.60;92732.81;5050058;28;20207;-73
2022/08/07 02:43:23;;;;;;;12.23;11.13;;;;;;;20.58;80.07;92705.56;5050649;28;20191;-73
2022/08/07 02:45:51;;;;;;;11.65;10.75;;;;;;;20.58;81.01;92713.53;5049865;28;20256;-72
2022/08/07 02:48:17;;;;;;;11.57;10.45;;;;;;;20.04;83.79;92689.22;5050714;28;20191;-74
2022/08/07 02:50:47;;;;;;;12.40;11.20;;;;;;;20.18;86.00;92716.19;5047413;28;20233;-73
2022/08/07 02:53:20;;;;;;;11.88;10.88;;;;;;;20.11;86.85;92702.66;5050008;28;20828;-73
2022/08/07 02:55:48;;;;;;;12.25;11.27;;;;;;;20.12;87.44;92690.97;5029922;28;20218;-74
2022/08/07 02:58:17;;;;;;;12.57;11.57;;;;;;;20.16;87.60;92688.44;5029289;28;20210;-74
2022/08/07 03:00:46;;;;;;;12.77;11.75;;;;;;;20.02;86.97;92680.81;5047961;28;20244;-74
2022/08/07 03:03:14;;;;;;;12.30;11.30;;;;;;;20.24;86.51;92692.84;5049201;28;20277;-74
2022/08/07 03:05:40;;;;;;;11.98;11.07;;;;;;;20.11;86.34;92665.56;5048800;28;20248;-73
2022/08/07 03:08:07;;;;;;;12.68;11.77;;;;;;;20.34;86.58;92698.44;5049812;28;20196;-74
2022/08/07 03:10:34;;;;;;;12.77;11.63;;;;;;;20.19;87.23;92690.41;5048838;28;20219;-74
2022/08/07 03:13:00;;;;;;;12.27;11.02;;;;;;;20.23;86.87;92676.16;5049717;28;20189;-73
2022/08/07 03:15:27;;;;;;;12.15;11.25;;;;;;;20.13;86.73;92675.81;5048647;28;20229;-73
2022/08/07 03:17:53;;;;;;;13.23;12.13;;;;;;;20.13;86.55;92663.38;5049299;28;20258;-73
2022/08/07 03:20:18;;;;;;;12.90;11.57;;;;;;;20.03;84.83;92644.50;5048355;28;20232;-73
2022/08/07 03:22:46;;;;;;;12.02;10.95;;;;;;;20.34;83.98;92669.28;5050093;28;20195;-73
2022/08/07 03:25:11;;;;;;;12.45;11.55;;;;;;;20.23;84.10;92649.63;5048912;28;20218;-73
2022/08/07 03:27:38;;;;;;;11.57;10.68;;;;;;;20.35;84.31;92662.88;5048772;28;20193;-73
2022/08/07 03:30:04;;;;;;;12.77;11.68;;;;;;;20.47;83.71;92680.63;5048507;28;20221;-74
2022/08/07 03:32:34;;;;;;;12.65;11.60;;;;;;;20.64;81.11;92681.13;5049554;28;20232;-73
2022/08/07 03:35:04;;;;;;;11.70;10.77;;;;;;;20.80;81.35;92677.72;5048816;28;20216;-73
2022/08/07 03:37:31;;;;;;;11.65;10.65;;;;;;;20.90;80.20;92669.28;5075177;28;20207;-73
2022/08/07 03:39:58;;;;;;;11.93;11.13;;;;;;;20.67;77.52;92637.19;5048023;28;20235;-75
2022/08/07 03:42:24;;;;;;;10.48;9.68;;;;;;;20.88;75.77;92650.25;5046657;28;20188;-73
2022/08/07 03:44:50;;;;;;;9.57;8.88;;;;;;;21.19;77.12;92682.19;5048987;28;20234;-74
2022/08/07 03:47:15;;;;;;;11.35;10.65;;;;;;;21.20;76.58;92659.84;5047987;28;20188;-73
2022/08/07 03:49:42;;;;;;;10.50;9.77;;;;;;;21.41;75.89;92676.28;5049261;28;20236;-72
2022/08/07 03:52:08;;;;;;;10.20;9.48;;;;;;;21.53;76.02;92684.94;5049222;28;20260;-72
2022/08/07 03:54:35;;;;;;;10.88;10.15;;;;;;;21.56;76.76;92678.16;5047990;28;20247;-72
2022/08/07 03:57:02;;;;;;;10.40;9.70;;;;;;;21.73;75.79;92696.41;5049189;28;20217;-71
2022/08/07 03:59:27;;;;;;;10.52;9.70;;;;;;;21.84;74.64;92676.97;5048728;28;20234;-72
2022/08/07 04:01:55;;;;;;;10.68;9.98;;;;;;;21.99;75.86;92716.03;5047504;28;20224;-71
2022/08/07 04:04:21;;;;;;;10.20;9.50;;;;;;;21.71;77.87;92691.44;5047664;28;20236;-72
2022/08/07 04:06:46;;;;;;;11.20;10.50;;;;;;;21.68;77.97;92705.41;5047969;28;20204;-71
2022/08/07 04:09:13;;;;;;;12.68;11.43;;;;;;;21.58;79.14;92723.78;5049067;28;20219;-71
2022/08/07 04:11:39;;;;;;;12.85;11.75;;;;;;;21.02;81.02;92701.09;5048704;28;20252;-72
2022/08/07 04:14:05;;;;;;;12.40;11.40;;;;;;;21.27;80.32;92726.41;5049262;28;20255;-72
2022/08/07 04:16:31;;;;;;;12.60;11.38;;;;;;;21.09;80.16;92706.59;5048528;28;20195;-72
2022/08/07 04:18:57;;;;;;;13.18;12.07;;;;;;;21.23;80.48;92712.28;5049217;28;20239;-72
2022/08/07 04:21:22;;;;;;;12.55;11.23;;;;;;;21.59;79.63;92719.97;5048572;28;20219;-71
2022/08/07 04:23:48;;;;;;;12.25;11.25;;;;;;;21.54;79.30;92697.09;5049101;28;20288;-71
2022/08/07 04:26:15;;;;;;;12.85;11.75;;;;;;;21.62;80.26;92698.06;5047331;28;20188;-73
2022/08/07 04:28:40;;;;;;;13.10;11.95;;;;;;;21.68;79.70;92696.69;5049041;28;20255;-71
2022/08/07 04:31:07;;;;;;;12.98;11.75;;;;;;;22.02;77.90;92727.91;5049038;28;20184;-72
2022/08/07 04:33:35;;;;;;;12.45;11.43;;;;;;;22.06;79.14;92734.06;5048823;28;20219;-71
2022/08/07 04:36:02;;;;;;;12.13;11.23;;;;;;;22.07;77.86;92731.06;5047630;28;20193;-74
2022/08/07 04:38:28;;;;;;;12.68;11.65;;;;;;;21.83;78.92;92703.91;5048447;28;20193;-72
2022/08/07 04:40:53;;;;;;;13.23;12.15;;;;;;;22.04;79.12;92733.63;5048752;28;20231;-71
2022/08/07 04:43:27;;;;;;;12.25;11.35;;;;;;;22.04;78.49;92722.97;5049220;28;20217;-73
2022/08/07 04:46:24;;;;;;;12.02;10.85;;;;;;;22.20;77.06;92745.00;5048809;28;20188;-71
2022/08/07 04:49:08;;;;;;;12.02;11.02;;;;;;;22.05;76.87;92748.47;5046281;28;20220;-70
2022/08/07 04:51:40;;;;;;;12.43;11.40;;;;;;;22.40;76.03;92749.25;5048555;28;20195;-72
2022/08/07 04:54:35;;;;;;;12.68;11.68;;;;;;;22.55;76.52;92755.69;5049005;28;20615;-72
2022/08/07 04:57:12;;;;;;;12.73;11.63;;;;;;;22.27;77.03;92755.81;5048243;28;20185;-72
2022/08/07 04:59:57;;;;;;;11.50;10.70;;;;;;;22.44;75.68;92750.13;5047065;28;20232;-73
2022/08/07 05:02:31;;;;;;;11.52;10.43;;;;;;;22.95;74.34;92754.25;5048027;28;20241;-71
2022/08/07 05:07:34;;;;;;;13.07;12.07;;;;;;;23.32;73.93;92755.38;5033295;27;1996744;-72
2022/08/07 05:10:34;;;;;;;13.02;11.93;;;;;;;23.68;72.36;92751.44;5042468;28;20233;-72
2022/08/07 05:13:07;;;;;;;13.05;12.00;;;;;;;23.86;71.43;92755.16;5023220;28;20192;-72
2022/08/07 05:15:40;;;;;;;12.35;11.45;;;;;;;23.99;71.37;92758.44;5024347;28;20262;-72
2022/08/07 05:18:11;;;;;;;12.82;11.82;;;;;;;23.80;71.32;92758.50;5023929;28;20225;-73
2022/08/07 05:20:42;;;;;;;13.25;12.18;;;;;;;24.17;67.48;92775.50;5022368;28;20218;-72
2022/08/07 05:23:16;;;;;;;13.02;12.07;;;;;;;24.10;66.77;92780.72;5023479;28;20217;-73
2022/08/07 05:25:43;;;;;;;12.77;11.82;;;;;;;23.75;67.19;92768.31;5024345;28;20253;-78
2022/08/07 05:28:11;;;;;;;11.73;10.93;;;;;;;23.81;67.24;92781.34;5023815;28;20188;-75
2022/08/07 05:30:37;;;;;;;11.88;11.05;;;;;;;23.67;67.20;92773.91;5024080;28;20244;-77
2022/08/07 05:33:04;;;;;;;12.52;11.57;;;;;;;24.22;65.82;92783.22;5019730;28;20257;-72
2022/08/07 05:35:32;;;;;;;12.80;11.80;;;;;;;23.36;69.26;92785.50;5023877;28;20226;-74
2022/08/07 05:37:59;;;;;;;14.05;12.85;;;;;;;23.37;70.14;92787.06;5023233;28;20195;-73
2022/08/07 05:40:25;;;;;;;13.45;12.35;;;;;;;23.67;68.95;92769.31;5022176;28;20232;-74
2022/08/07 05:42:51;;;;;;;12.10;11.25;;;;;;;23.57;70.02;92785.91;5023592;28;21063;-74
2022/08/07 05:45:19;;;;;;;13.23;12.32;;;;;;;24.00;69.25;92784.00;5022917;28;20237;-73
2022/08/07 05:47:45;;;;;;;12.95;11.90;;;;;;;24.65;66.90;92794.16;5021664;28;20368;-74
2022/08/07 05:50:11;;;;;;;13.10;12.10;;;;;;;27.03;59.71;92807.63;5022340;28;20221;-74
2022/08/07 05:52:37;;;;;;;10.13;9.32;;;;;;;29.40;51.00;92819.84;5023882;28;20183;-74
2022/08/07 05:55:02;;;;;;;10.68;9.85;;;;;;;32.02;43.68;92834.28;5023383;28;20231;-74
2022/08/07 05:57:29;;;;;;;11.00;10.20;;;;;;;32.91;41.20;92839.19;5023027;28;20258;-74
2022/08/07 05:59:56;;;;;;;9.95;9.25;;;;;;;35.94;34.82;92855.75;5023070;28;20231;-74
2022/08/07 06:02:25;;;;;;;10.23;9.45;;;;;;;37.43;31.27;92864.34;5021372;28;20205;-73
2022/08/07 06:04:54;;;;;;;10.20;9.40;;;;;;;37.48;30.67;92861.09;5021500;28;20262;-74
2022/08/07 06:07:19;;;;;;;10.43;9.57;;;;;;;37.02;31.20;92851.69;5023622;28;20230;-73
2022/08/07 06:09:46;;;;;;;9.50;8.80;;;;;;;38.57;29.08;92862.63;5022109;28;20233;-74
2022/08/07 06:12:13;;;;;;;11.13;10.23;;;;;;;37.67;30.65;92863.53;5022228;28;20183;-73
2022/08/07 06:14:39;;;;;;;9.23;8.57;;;;;;;39.23;27.67;92864.66;5038496;28;20254;-73
2022/08/07 06:17:05;;;;;;;10.68;8.70;;;;;;;38.16;28.31;92855.56;5047709;28;20197;-74
2022/08/07 06:19:31;;;;;;;9.02;8.43;;;;;;;38.92;27.82;92866.69;5037544;28;20218;-74
2022/08/07 06:21:57;;;;;;;9.32;8.73;;;;;;;40.45;23.96;92869.56;5036107;28;20194;-75
2022/08/07 06:24:22;;;;;;;8.95;8.25;;;;;;;40.51;23.48;92878.69;5037813;28;20226;-73
2022/08/07 06:26:48;;;;;;;7.63;7.13;;;;;;;41.54;21.38;92880.06;5037649;28;20210;-74
2022/08/07 06:29:13;;;;;;;8.90;8.30;;;;;;;39.46;23.13;92872.34;5039318;28;20236;-75
2022/08/07 06:31:39;;;;;;;8.38;7.88;;;;;;;40.01;22.85;92873.88;5038636;28;20254;-73
2022/08/07 06:34:04;;;;;;;9.05;8.38;;;;;;;34.81;30.01;92841.53;5036121;28;20252;-72
2022/08/07 06:36:30;;;;;;;8.50;7.90;;;;;;;32.27;34.49;92848.22;5036598;28;20190;-72
2022/08/07 06:38:55;;;;;;;11.45;10.45;;;;;;;29.48;40.23;92812.53;5039619;28;20603;-72
2022/08/07 06:41:44;;;;;;;10.50;9.68;;;;;;;29.67;40.56;92836.28;5037376;28;20396;-72
2022/08/07 06:44:11;;;;;;;10.48;9.63;;;;;;;27.47;45.61;92837.75;5039768;28;20666;-71
2022/08/07 06:46:38;;;;;;;10.65;9.68;;;;;;;28.09;45.42;92831.06;5037025;28;20225;-72
2022/08/07 06:49:04;;;;;;;12.85;11.77;;;;;;;27.48;47.63;92820.50;5030524;28;20241;-72
2022/08/07 06:51:32;;;;;;;9.95;9.15;;;;;;;27.38;47.78;92819.31;5036250;28;20194;-72
2022/08/07 06:54:02;;;;;;;10.73;9.73;;;;;;;27.27;46.69;92829.22;5035337;28;20310;-73
2022/08/07 06:56:38;;;;;;;10.45;9.73;;;;;;;27.37;47.11;92827.75;5036275;28;20986;-72
2022/08/07 06:59:09;;;;;;;12.07;11.07;;;;;;;27.15;47.78;92826.84;5038548;28;20262;-72
2022/08/07 07:01:36;;;;;;;11.25;10.35;;;;;;;27.10;48.62;92837.19;5035889;28;20217;-75
2022/08/07 07:04:04;;;;;;;10.70;9.70;;;;;;;27.21;47.57;92832.66;5033013;28;20263;-71
2022/08/07 07:06:31;;;;;;;11.13;10.32;;;;;;;26.84;51.42;92842.75;5034581;28;20308;-72
2022/08/07 07:09:15;;;;;;;11.60;10.80;;;;;;;27.07;49.25;92844.03;5040098;28;20320;-69
2022/08/07 07:12:03;;;;;;;11.00;10.10;;;;;;;26.80;50.95;92834.69;5035249;28;20191;-69
2022/08/07 07:14:35;;;;;;;12.23;11.13;;;;;;;26.51;52.77;92835.59;5035016;28;20230;-69
2022/08/07 07:17:07;;;;;;;11.63;10.73;;;;;;;26.45;53.23;92829.84;5039257;28;20221;-68
2022/08/07 07:19:37;;;;;;;11.85;10.90;;;;;;;26.56;52.43;92833.34;5035349;28;20227;-73
2022/08/07 07:22:03;;;;;;;11.88;10.90;;;;;;;26.91;49.74;92835.53;5036372;28;20202;-72
2022/08/07 07:24:30;;;;;;;13.20;12.07;;;;;;;26.92;50.04;92842.44;5036135;28;20245;-72
2022/08/07 07:26:59;;;;;;;11.70;10.70;;;;;;;27.11;50.64;92833.34;5034282;28;20214;-73
2022/08/07 07:29:29;;;;;;;12.75;11.48;;;;;;;26.75;51.43;92840.41;5034337;28;20254;-74
2022/08/07 07:31:56;;;;;;;11.88;10.98;;;;;;;26.46;51.51;92842.06;5036912;28;20258;-71
2022/08/07 07:34:27;;;;;;;13.43;12.23;;;;;;;25.78;53.76;92836.44;5033149;28;20230;-73
2022/08/07 07:36:55;;;;;;;11.82;10.82;;;;;;;26.18;53.15;92839.16;5038853;28;20747;-73
2022/08/07 07:39:23;;;;;;;12.82;11.73;;;;;;;26.73;51.60;92840.00;5032619;28;20226;-72
2022/08/07 07:41:50;;;;;;;12.25;11.25;;;;;;;26.81;51.14;92844.28;5031767;28;20728;-72
2022/08/07 07:44:17;;;;;;;12.65;11.55;;;;;;;27.00;51.20;92840.56;5035029;28;20302;-70
2022/08/07 07:46:43;;;;;;;12.65;11.57;;;;;;;27.11;51.36;92852.13;5032898;28;20217;-73
2022/08/07 07:49:11;;;;;;;12.55;11.55;;;;;;;27.04;50.94;92852.84;5030884;28;20287;-75
2022/08/07 07:51:37;;;;;;;13.55;10.77;;;;;;;26.84;51.92;92856.16;5033185;28;20190;-73
2022/08/07 07:54:05;;;;;;;12.52;11.52;;;;;;;26.77;50.58;92848.84;5035565;28;20296;-71
2022/08/07 07:56:32;;;;;;;11.75;10.55;;;;;;;26.67;51.56;92833.47;5036456;28;20216;-77
2022/08/07 07:59:08;;;;;;;12.65;11.50;;;;;;;27.10;49.02;92796.97;5037000;28;20230;-74
2022/08/07 08:01:37;;;;;;;12.57;11.48;;;;;;;27.17;50.68;92850.59;5035123;28;20281;-75
2022/08/07 08:04:05;;;;;;;11.73;10.75;;;;;;;26.85;49.53;92855.03;5032274;28;20226;-76
2022/08/07 08:06:32;;;;;;;11.70;10.75;;;;;;;26.84;50.27;92843.53;5035567;28;20233;-76
2022/08/07 08:09:00;;;;;;;12.95;11.85;;;;;;;27.15;49.42;92858.25;5035550;28;20323;-73
2022/08/07 08:11:26;;;;;;;14.38;12.98;;;;;;;26.77;50.68;92848.06;5038411;28;20207;-73
2022/08/07 08:13:51;;;;;;;14.15;13.02;;;;;;;27.19;50.01;92856.38;5038842;28;20249;-71
2022/08/07 08:16:19;;;;;;;13.10;11.95;;;;;;;27.12;47.43;92856.31;5038402;28;20206;-72
2022/08/07 08:18:47;;;;;;;14.23;12.93;;;;;;;26.79;49.29;92853.84;5038512;28;20230;-72
2022/08/07 08:27:08;;;;;;;16.40;14.88;;;;;;;26.29;49.49;92866.78;5038759;28;20228;-74
2022/08/07 08:29:45;;;;;;;15.07;13.55;;;;;;;26.47;49.51;92873.09;5038477;28;20236;-73
2022/08/07 08:32:16;;;;;;;14.32;13.02;;;;;;;26.66;51.46;92867.50;5037551;28;20193;-73
2022/08/07 08:34:44;;;;;;;13.32;12.13;;;;;;;26.77;48.84;92856.88;5041030;28;20294;-69
2022/08/07 08:37:12;;;;;;;13.43;12.10;;;;;;;27.15;49.12;92871.66;5041747;28;20197;-70
2022/08/07 08:39:41;;;;;;;14.00;12.70;;;;;;;27.36;48.17;92863.78;5037131;28;20265;-71
2022/08/07 08:42:20;;;;;;;13.95;12.70;;;;;;;27.91;46.84;92876.66;5035146;28;20200;-72
2022/08/07 08:44:52;;;;;;;13.63;12.48;;;;;;;27.83;46.26;92885.06;5038675;28;20253;-72
2022/08/07 08:47:30;;;;;;;12.50;11.43;;;;;;;27.12;48.09;92878.53;5037416;28;20213;-73
2022/08/07 08:50:19;;;;;;;14.75;13.50;;;;;;;27.61;48.22;92870.75;5034061;28;20287;-72
2022/08/07 08:52:56;;;;;;;12.00;10.95;;;;;;;27.57;47.11;92885.31;5037595;28;20191;-72
2022/08/07 08:55:32;;;;;;;12.43;11.32;;;;;;;27.69;46.22;92882.31;5038120;28;20224;-72
2022/08/07 08:58:08;;;;;;;12.38;11.27;;;;;;;27.76;46.60;92876.97;5037847;28;20186;-72
2022/08/07 09:00:42;;;;;;;11.68;10.60;;;;;;;27.46;44.54;92858.44;5038640;28;20220;-71
2022/08/07 09:03:16;;;;;;;13.52;12.23;;;;;;;26.62;46.33;92852.53;5032861;28;20186;-71
2022/08/07 09:06:10;;;;;;;13.13;11.93;;;;;;;26.68;48.22;92861.78;5036830;28;20955;-72
2022/08/07 09:08:38;;;;;;;12.95;11.77;;;;;;;26.68;49.11;92878.63;5035362;28;20191;-72
2022/08/07 09:11:16;;;;;;;12.23;11.20;;;;;;;26.35;48.90;92859.97;5036256;28;20178;-72
2022/08/07 09:13:54;;;;;;;13.00;11.90;;;;;;;26.19;49.92;92864.81;5036680;28;20238;-71
2022/08/07 09:16:35;;;;;;;13.27;12.00;;;;;;;26.58;48.15;92860.53;5040516;28;20182;-72
2022/08/07 09:19:13;;;;;;;12.85;11.52;;;;;;;26.65;47.97;92865.19;5034333;28;20917;-73
2022/08/07 09:21:41;;;;;;;11.30;10.40;;;;;;;26.76;47.84;92870.66;5037342;28;20193;-70
2022/08/07 09:24:21;;;;;;;12.30;11.30;;;;;;;26.62;49.04;92863.22;5034496;28;20229;-72
2022/08/07 09:27:02;;;;;;;12.30;11.23;;;;;;;26.85;50.66;92866.50;5035063;28;20221;-72
2022/08/07 09:30:07;;;;;;;11.55;10.65;;;;;;;26.68;48.29;92841.13;5037044;28;20269;-71
2022/08/07 09:33:07;;;;;;;11.07;10.20;;;;;;;26.90;47.35;92846.63;4979262;28;20228;-71
2022/08/07 09:35:45;;;;;;;11.40;10.60;;;;;;;26.54;48.61;92822.25;4978851;28;20260;-73
2022/08/07 09:39:02;;;;;;;11.57;10.57;;;;;;;26.84;46.08;92845.44;5034180;28;20202;-71
2022/08/07 09:41:40;;;;;;;11.98;11.07;;;;;;;27.08;45.89;92850.19;4967718;28;20216;-73
2022/08/07 09:44:27;;;;;;;11.40;10.48;;;;;;;27.19;46.05;92848.34;5021680;28;20223;-72
2022/08/07 09:47:14;;;;;;;11.70;10.73;;;;;;;27.11;45.37;92833.34;5037799;28;20274;-73
2022/08/07 09:49:58;;;;;;;14.30;11.10;;;;;;;26.90;46.25;92841.28;5039378;28;20242;-72
2022/08/07 09:52:44;;;;;;;11.02;10.23;;;;;;;26.90;44.91;92839.34;5038094;28;20937;-72
2022/08/07 09:55:44;;;;;;;11.70;10.80;;;;;;;27.20;45.16;92841.81;5043555;28;20241;-74
2022/08/07 09:58:25;;;;;;;11.75;10.80;;;;;;;27.39;45.27;92844.25;5041719;28;20212;-72
2022/08/07 10:01:21;;;;;;;11.25;10.30;;;;;;;27.63;45.67;92830.13;5010185;28;20268;-72
2022/08/07 10:04:12;;;;;;;11.30;10.30;;;;;;;27.44;43.98;92825.09;5017782;28;20253;-72
2022/08/07 10:07:12;;;;;;;11.93;10.95;;;;;;;27.30;44.83;92831.16;5041892;28;20231;-72
2022/08/07 10:09:40;;;;;;;11.88;10.93;;;;;;;27.66;45.13;92830.16;5042552;28;20277;-72
2022/08/07 10:12:09;;;;;;;11.80;10.68;;;;;;;27.66;44.23;92816.00;5039837;28;20193;-71
2022/08/07 10:14:57;;;;;;;11.15;10.35;;;;;;;27.36;44.63;92816.28;5039318;28;20286;-73
2022/08/07 10:18:17;;;;;;;10.82;9.80;;;;;;;27.45;43.75;92821.28;5014640;28;20217;-72
2022/08/07 10:21:05;;;;;;;11.40;9.88;;;;;;;27.14;45.00;92746.81;4997811;28;20224;-73
2022/08/07 10:24:08;;;;;;;11.45;10.45;;;;;;;27.64;44.61;92808.28;5010334;28;20210;-72
2022/08/07 10:26:51;;;;;;;10.80;10.00;;;;;;;27.46;43.26;92815.53;5011411;28;20277;-72
2022/08/07 10:29:36;;;;;;;10.20;9.50;;;;;;;27.48;42.85;92815.16;5011668;28;20247;-72
2022/08/07 10:32:46;;;;;;;11.38;10.43;;;;;;;27.25;44.49;92810.06;5011040;28;20183;-73
2022/08/07 10:35:40;;;;;;;10.65;9.85;;;;;;;27.52;44.29;92814.00;5008853;28;20221;-71
2022/08/07 10:38:43;;;;;;;10.77;9.98;;;;;;;27.14;44.15;92809.25;5041265;28;20186;-72
2022/08/07 10:41:17;;;;;;;10.32;9.45;;;;;;;27.58;43.51;92806.38;5013517;28;20241;-72
2022/08/07 10:43:55;;;;;;;11.15;10.13;;;;;;;27.83;42.88;92817.97;5040308;28;20221;-73
2022/08/07 10:46:40;;;;;;;10.20;9.48;;;;;;;27.59;43.05;92806.00;5040261;28;20210;-72
2022/08/07 10:49:13;;;;;;;11.10;10.20;;;;;;;27.86;42.94;92807.19;5039828;28;20285;-72
2022/08/07 10:51:48;;;;;;;11.68;10.63;;;;;;;27.96;41.96;92817.25;5039288;28;20217;-72
2022/08/07 10:54:26;;;;;;;9.93;9.20;;;;;;;28.30;42.74;92819.59;5040103;28;20248;-72
2022/08/07 10:57:28;;;;;;;11.00;10.07;;;;;;;28.44;42.64;92824.97;5041275;28;20224;-72
2022/08/07 11:00:15;;;;;;;11.30;10.40;;;;;;;29.12;41.39;92817.22;5039605;28;20230;-72
2022/08/07 11:03:06;;;;;;;10.30;9.60;;;;;;;28.60;40.43;92811.91;5040532;28;20187;-71
2022/08/07 11:05:55;;;;;;;10.00;9.27;;;;;;;28.27;41.87;92788.88;5039187;28;20227;-72
2022/08/07 11:08:42;;;;;;;10.38;9.45;;;;;;;28.51;40.72;92801.56;5038040;28;20237;-72
2022/08/07 11:11:30;;;;;;;10.68;9.88;;;;;;;28.05;42.25;92814.16;5042911;28;20198;-72
2022/08/07 11:14:02;;;;;;;11.30;10.32;;;;;;;28.13;41.63;92811.13;5037572;28;20256;-72
2022/08/07 11:17:06;;;;;;;11.13;10.07;;;;;;;27.66;42.36;92821.34;5040720;28;20808;-72
2022/08/07 11:19:51;;;;;;;10.25;9.55;;;;;;;27.50;42.80;92815.56;5007962;28;20272;-72
2022/08/07 11:22:58;;;;;;;11.20;10.27;;;;;;;27.38;43.44;92811.28;5042503;28;20186;-72
2022/08/07 11:25:37;;;;;;;10.27;9.48;;;;;;;27.08;43.74;92804.63;5027382;28;20221;-71
2022/08/07 11:28:15;;;;;;;11.73;10.82;;;;;;;27.05;44.86;92803.47;5041333;28;20274;-72
2022/08/07 11:30:56;;;;;;;10.40;9.43;;;;;;;27.46;44.64;92814.75;5035546;28;20225;-73
2022/08/07 11:33:37;;;;;;;11.15;10.25;;;;;;;27.85;44.68;92811.03;5041446;28;20228;-72
2022/08/07 11:36:34;;;;;;;12.05;10.93;;;;;;;28.18;44.54;92813.44;5038669;28;20195;-72
2022/08/07 11:39:13;;;;;;;9.80;9.10;;;;;;;27.96;41.28;92806.50;5036946;28;20244;-72
2022/08/07 11:41:53;;;;;;;10.60;9.90;;;;;;;27.90;41.30;92802.66;5041630;28;20178;-71
2022/08/07 11:44:55;;;;;;;10.38;9.57;;;;;;;28.07;43.41;92804.59;5040430;28;20225;-71
2022/08/07 11:47:58;;;;;;;11.18;10.05;;;;;;;27.77;45.03;92814.84;5039077;28;20202;-73
2022/08/07 11:50:42;;;;;;;12.23;11.32;;;;;;;28.23;44.85;92802.28;5035468;28;20230;-72
2022/08/07 11:53:38;;;;;;;10.77;9.82;;;;;;;28.54;44.09;92813.47;5038526;28;20188;-71